Latest Weather Observations for Mount Boyce

IDN60901

Issued at 3:35 am EST Saturday 23 August 2014 (issued every 10 minutes, with the page automatically refreshed every 10 minutes)

About weather observations | Map of Sydney area stations | Latest observations for Sydney area | Other Formats
Station Details ID: 063292 Name: MOUNT BOYCE AWS Lat: -33.62 Lon: 150.27 Height: 1080.0 m
Data from the previous 72 hours. | See also: Recent months at Mount Boyce
Date/Time
EST
Tmp

°C
App
Tmp
°C
Dew
Point
°C
Rel
Hum
%
Delta-T

°C
Wind Press
QNH
hPa
Press
MSL
hPa
Rain
since
9 am
mm
Dir
 
Spd
km/h
Gust
km/h
Spd
kts
Gust
kts
23/03:30am 5.4 3.9 5.1 98 0.1 E 2 9 1 5 - - 1.0
23/03:00am 5.3 3.4 5.0 98 0.1 E 4 7 2 4 - - 1.0
23/02:30am 4.9 3.7 4.6 98 0.1 CALM 0 6 0 3 - - 1.0
23/02:20am 4.6 3.3 4.2 97 0.2 CALM 0 6 0 3 - - 1.0
23/02:18am 4.6 3.3 4.2 97 0.2 CALM 0 6 0 3 - - 1.0
23/02:00am 4.7 3.4 4.3 97 0.2 CALM 0 6 0 3 - - 0.8
23/01:55am 4.6 3.3 4.2 97 0.2 CALM 0 6 0 3 - - 0.8
23/01:31am 4.2 1.7 3.6 96 0.3 E 6 11 3 6 - - 0.8
23/01:30am 4.2 2.0 3.6 96 0.3 E 4 11 2 6 - - 0.8
23/01:02am 4.5 2.8 3.9 96 0.3 E 2 6 1 3 - - 0.8
23/01:00am 4.6 2.5 4.0 96 0.3 ENE 4 7 2 4 - - 0.8
23/12:30am 5.0 2.6 4.4 96 0.3 E 6 11 3 6 - - 0.8
23/12:00am 5.5 3.2 4.9 96 0.3 E 6 11 3 6 - - 0.8
 
Date/Time
EST
Tmp

°C
App
Tmp
°C
Dew
Point
°C
Rel
Hum
%
Delta-T

°C
Wind Press
QNH
hPa
Press
MSL
hPa
Rain
since
9 am
mm
Dir
 
Spd
km/h
Gust
km/h
Spd
kts
Gust
kts
22/11:30pm 5.7 3.8 5.1 96 0.3 E 4 13 2 7 - - 0.8
22/11:00pm 5.8 3.0 5.2 96 0.3 E 9 17 5 9 - - 0.8
22/10:30pm 5.8 3.6 5.2 96 0.3 E 6 11 3 6 - - 0.8
22/10:00pm 5.9 3.5 5.3 96 0.3 ESE 7 15 4 8 - - 0.8
22/09:30pm 6.2 3.9 5.6 96 0.3 ESE 7 13 4 7 - - 0.8
22/09:00pm 6.4 4.3 6.0 97 0.2 E 6 11 3 6 - - 0.8
22/08:30pm 6.6 4.4 6.2 97 0.2 E 7 15 4 8 - - 0.8
22/08:00pm 6.6 4.0 6.2 97 0.2 ESE 9 15 5 8 - - 0.8
22/07:48pm 6.6 4.0 6.0 96 0.3 E 9 15 5 8 - - 0.8
22/07:30pm 6.8 4.3 6.4 97 0.2 E 9 22 5 12 - - 0.8
22/07:27pm 6.9 4.4 6.5 97 0.2 ESE 9 22 5 12 - - 0.8
22/07:00pm 7.0 4.5 6.6 97 0.2 E 9 19 5 10 - - 0.8
22/06:30pm 6.9 4.7 6.3 96 0.3 E 7 15 4 8 - - 0.8
22/06:10pm 6.7 4.5 6.0 95 0.3 E 7 11 4 6 - - 0.8
22/06:07pm 6.7 4.6 6.0 95 0.3 E 6 11 3 6 - - 0.8
22/06:00pm 6.9 4.9 6.2 95 0.3 E 6 13 3 7 - - 0.8
22/05:30pm 6.9 5.2 5.7 92 0.6 E 4 7 2 4 - - 0.8
22/05:25pm 6.9 5.1 5.5 91 0.7 E 4 7 2 4 - - 0.8
22/05:00pm 7.5 6.2 5.8 89 0.8 E 2 9 1 5 - - 0.8
22/04:30pm 8.0 6.3 6.1 88 0.9 ENE 4 9 2 5 - - 0.8
22/04:03pm 8.4 6.4 6.4 87 1.0 E 6 13 3 7 - - 0.8
22/04:00pm 8.5 6.5 6.3 86 1.1 E 6 13 3 7 - - 0.8
22/03:45pm 8.9 7.0 6.9 87 1.0 SE 6 9 3 5 - - 0.8
22/03:30pm 8.8 7.5 6.2 84 1.3 E 2 7 1 4 - - 0.8
22/03:17pm 9.2 7.3 6.5 83 1.3 E 6 13 3 7 - - 0.8
22/03:00pm 8.8 6.9 6.8 87 1.0 E 6 11 3 6 - - 0.8
22/02:30pm 8.1 6.1 6.4 89 0.8 ESE 6 11 3 6 - - 0.8
22/02:26pm 8.3 6.8 6.9 91 0.7 E 4 9 2 5 - - 0.8
22/02:00pm 8.3 6.0 7.4 94 0.5 ESE 9 15 5 8 - - 0.8
22/01:58pm 8.2 5.8 7.1 93 0.5 ESE 9 15 5 8 - - 0.8
22/01:53pm 8.3 6.4 7.7 96 0.3 E 7 15 4 8 - - 0.8
22/01:30pm 7.7 5.7 7.0 95 0.3 E 7 17 4 9 - - 0.8
22/01:00pm 7.8 5.8 7.1 95 0.3 E 7 13 4 7 - - 0.8
22/12:30pm 7.8 6.0 7.1 95 0.3 ESE 6 11 3 6 - - 0.6
22/12:25pm 7.9 6.5 7.1 95 0.4 ESE 4 11 2 6 - - 0.6
22/12:00pm 7.4 5.4 7.1 98 0.1 E 7 15 4 8 - - 0.6
22/11:45am 7.5 5.5 7.2 98 0.1 E 7 15 4 8 - - 0.6
22/11:30am 7.6 5.6 7.3 98 0.1 E 7 17 4 9 - - 0.6
22/11:24am 7.6 5.3 7.5 99 0.0 E 9 17 5 9 - - 0.6
22/11:20am 7.8 5.6 7.7 99 0.1 E 9 17 5 9 - - 0.6
22/11:00am 7.1 5.0 6.8 98 0.1 E 7 15 4 8 - - 0.6
22/10:30am 6.5 4.3 6.2 98 0.1 E 7 17 4 9 - - 0.4
22/10:24am 6.6 4.6 6.3 98 0.1 E 6 13 3 7 - - 0.4
22/10:00am 6.6 4.0 6.3 98 0.1 E 9 17 5 9 - - 0.4
22/09:30am 6.2 3.6 5.9 98 0.1 E 9 17 5 9 - - 0.2
22/09:00am 6.0 3.3 5.7 98 0.1 E 9 17 5 9 - - 9.0
22/08:30am 5.6 2.8 5.3 98 0.1 E 9 20 5 11 - - 9.0
22/08:00am 5.3 2.5 5.0 98 0.1 E 9 17 5 9 - - 8.6
22/07:30am 5.4 2.2 5.1 98 0.1 E 11 20 6 11 - - 8.4
22/07:00am 5.3 2.5 5.0 98 0.1 E 9 17 5 9 - - 8.2
22/06:30am 5.3 2.1 5.0 98 0.1 E 11 22 6 12 - - 8.0
22/06:00am 5.4 2.2 5.1 98 0.1 E 11 24 6 13 - - 8.0
22/05:30am 5.4 1.8 5.1 98 0.1 E 13 22 7 12 - - 7.4
22/05:00am 5.3 2.8 5.0 98 0.1 E 7 17 4 9 - - 6.6
22/04:30am 5.2 2.0 4.9 98 0.1 E 11 24 6 13 - - 6.2
22/04:00am 5.2 2.0 4.9 98 0.1 E 11 22 6 12 - - 6.0
22/03:55am 5.1 1.8 4.8 98 0.1 E 11 20 6 11 - - 6.0
22/03:47am 5.1 1.8 4.8 98 0.1 E 11 24 6 13 - - 6.0
22/03:30am 5.2 2.3 4.9 98 0.1 E 9 19 5 10 - - 6.0
22/03:00am 5.2 2.3 4.9 98 0.1 E 9 24 5 13 - - 5.8
22/02:30am 5.1 1.5 4.8 98 0.1 E 13 20 7 11 - - 5.8
22/02:00am 5.2 2.0 4.9 98 0.1 E 11 22 6 12 - - 5.6
22/01:30am 5.3 1.7 5.0 98 0.1 E 13 28 7 15 - - 5.6
22/01:00am 5.3 2.1 5.0 98 0.1 E 11 26 6 14 - - 5.6
22/12:30am 5.4 2.6 5.1 98 0.1 E 9 17 5 9 - - 5.4
22/12:00am 5.3 2.1 5.0 98 0.1 E 11 22 6 12 - - 4.4
 
Date/Time
EST
Tmp

°C
App
Tmp
°C
Dew
Point
°C
Rel
Hum
%
Delta-T

°C
Wind Press
QNH
hPa
Press
MSL
hPa
Rain
since
9 am
mm
Dir
 
Spd
km/h
Gust
km/h
Spd
kts
Gust
kts
21/11:30pm 5.3 2.5 5.0 98 0.1 E 9 20 5 11 - - 3.6
21/11:00pm 5.3 2.1 5.0 98 0.1 ESE 11 19 6 10 - - 3.2
21/10:30pm 5.2 1.6 4.9 98 0.1 ESE 13 24 7 13 - - 3.0
21/10:00pm 5.3 2.1 5.0 98 0.1 ESE 11 24 6 13 - - 3.0
21/09:30pm 5.2 2.0 4.9 98 0.1 ESE 11 20 6 11 - - 2.8
21/09:10pm 5.2 2.3 4.9 98 0.1 ESE 9 19 5 10 - - 2.8
21/09:05pm 5.1 2.2 4.8 98 0.1 ESE 9 19 5 10 - - 2.8
21/09:00pm 5.2 2.3 4.9 98 0.1 ESE 9 20 5 11 - - 2.8
21/08:30pm 5.3 2.1 5.0 98 0.1 ESE 11 20 6 11 - - 2.8
21/08:07pm 5.2 2.0 4.9 98 0.1 E 11 19 6 10 - - 2.6
21/08:00pm 5.2 2.0 4.9 98 0.1 E 11 19 6 10 - - 2.6
21/07:30pm 5.2 1.6 4.8 97 0.2 E 13 24 7 13 - - 2.6
21/07:11pm 5.2 1.2 4.8 97 0.2 E 15 24 8 13 - - 2.6
21/07:00pm 5.1 1.1 4.7 97 0.2 ESE 15 22 8 12 - - 2.6
21/06:50pm 5.1 1.4 4.5 96 0.3 E 13 20 7 11 - - 2.6
21/06:30pm 5.3 1.6 4.7 96 0.3 E 13 22 7 12 - - 2.6
21/06:01pm 5.7 2.9 5.1 96 0.3 E 9 17 5 9 - - 2.6
21/06:00pm 5.7 2.9 5.1 96 0.3 E 9 20 5 11 - - 2.6
21/05:30pm 5.9 2.7 5.3 96 0.3 E 11 24 6 13 - - 2.6
21/05:19pm 6.1 3.0 5.5 96 0.3 E 11 20 6 11 - - 2.6
21/05:00pm 6.3 3.2 5.7 96 0.3 E 11 24 6 13 - - 2.6
21/04:47pm 6.5 3.5 5.8 95 0.3 E 11 19 6 10 - - 2.6
21/04:30pm 6.8 4.6 6.2 96 0.3 E 7 13 4 7 - - 2.6
21/04:00pm 6.9 4.7 6.2 95 0.3 E 7 19 4 10 - - 2.6
21/03:48pm 6.9 4.9 6.2 95 0.3 E 6 11 3 6 - - 2.6
21/03:30pm 6.8 4.5 5.6 92 0.6 E 7 13 4 7 - - 2.4
21/03:23pm 6.9 4.7 5.5 91 0.7 E 6 20 3 11 - - 2.2
21/03:15pm 7.7 6.1 6.5 92 0.6 ESE 4 15 2 8 - - 1.2
21/03:00pm 7.3 5.1 6.4 94 0.4 E 7 13 4 7 - - 0.8
21/02:42pm 7.3 4.8 6.4 94 0.4 E 9 19 5 10 - - 0.8
21/02:30pm 7.1 4.5 6.0 93 0.5 E 9 17 5 9 - - 0.8
21/02:00pm 7.8 5.1 5.6 86 1.1 E 9 15 5 8 - - 0.6
21/01:30pm 8.0 5.6 7.1 94 0.4 E 9 19 5 10 - - 0.6
21/01:00pm 7.3 4.4 6.6 95 0.3 E 11 22 6 12 - - 0.6
21/12:32pm 7.3 4.9 6.9 97 0.2 E 9 17 5 9 - - 0.6
21/12:30pm 6.9 4.3 6.3 96 0.3 E 9 17 5 9 - - 0.6
21/12:14pm 6.5 4.3 6.1 97 0.2 ESE 7 15 4 8 - - 0.4
21/12:00pm 7.1 4.7 6.8 98 0.1 E 9 15 5 8 - - 0.2
21/11:41am 6.8 4.3 6.5 98 0.1 E 9 17 5 9 - - 0.2
21/11:30am 6.9 5.0 6.6 98 0.1 E 6 13 3 7 - - 0.2
21/11:00am 6.7 4.5 6.4 98 0.1 E 7 15 4 8 - - 0.2
21/10:30am 6.4 3.8 6.1 98 0.1 E 9 19 5 10 - - 0.2
21/10:02am 6.0 3.9 5.7 98 0.1 E 6 15 3 8 - - 0.0
21/10:00am 5.9 3.6 5.6 98 0.1 E 7 15 4 8 - - 0.0
21/09:30am 5.7 3.3 5.4 98 0.1 E 7 19 4 10 - - 0.0
21/09:00am 5.1 2.6 4.8 98 0.1 E 7 15 4 8 - - 0.8
21/08:30am 5.0 2.1 4.7 98 0.1 ESE 9 17 5 9 - - 0.8
21/08:00am 4.6 1.3 4.3 98 0.1 ESE 11 22 6 12 - - 0.8
21/07:30am 4.2 1.2 3.9 98 0.1 ESE 9 17 5 9 - - 0.8
21/07:00am 3.9 1.2 3.5 97 0.2 E 7 17 4 9 - - 0.6
21/06:30am 3.8 0.6 3.2 96 0.3 ESE 9 19 5 10 - - 0.2
21/06:09am 3.6 0.8 2.9 95 0.3 E 7 17 4 9 - - 0.2
21/06:00am 3.5 0.6 2.6 94 0.4 E 7 17 4 9 - - 0.2
21/05:30am 3.4 0.1 2.5 94 0.4 ESE 9 17 5 9 - - 0.2
21/05:00am 2.8 -0.6 1.6 92 0.5 E 9 17 5 9 - - 0.2
21/04:30am 2.6 -0.5 1.4 92 0.5 E 7 11 4 6 - - 0.2
21/04:00am 2.5 -1.0 1.5 93 0.4 ESE 9 17 5 9 - - 0.2
21/03:30am 1.9 -1.3 0.7 92 0.5 E 7 13 4 7 - - 0.2
21/03:00am 2.4 -1.1 1.4 93 0.4 SE 9 15 5 8 - - 0.2
21/02:30am 2.4 -1.1 1.1 91 0.5 SSE 9 15 5 8 - - 0.2
21/02:00am 2.7 -1.1 1.5 92 0.5 SSE 11 19 6 10 - - 0.2
21/01:30am 2.7 -1.1 1.7 93 0.4 S 11 17 6 9 - - 0.2
21/01:00am 2.7 -1.5 1.8 94 0.4 SSE 13 20 7 11 - - 0.0
21/12:30am 2.5 -0.9 1.9 96 0.3 SE 9 17 5 9 - - 0.0
21/12:00am 2.7 -0.3 2.1 96 0.3 SE 7 15 4 8 - - 0.0
 
Date/Time
EST
Tmp

°C
App
Tmp
°C
Dew
Point
°C
Rel
Hum
%
Delta-T

°C
Wind Press
QNH
hPa
Press
MSL
hPa
Rain
since
9 am
mm
Dir
 
Spd
km/h
Gust
km/h
Spd
kts
Gust
kts
20/11:59pm 2.7 -0.3 2.1 96 0.3 SE 7 15 4 8 - - 0.0
20/11:30pm 3.1 -0.6 2.5 96 0.3 SE 11 20 6 11 - - 0.0
20/11:00pm 3.0 -0.3 2.4 96 0.3 SE 9 17 5 9 - - 0.0
20/10:30pm 3.3 0.4 2.6 95 0.3 E 7 15 4 8 - - 0.0
20/10:00pm 3.5 0.6 2.8 95 0.3 ENE 7 13 4 7 - - 0.0
20/09:30pm 3.8 1.0 2.9 94 0.4 ENE 7 11 4 6 - - 0.0
20/09:00pm 4.4 1.7 3.7 95 0.3 ENE 7 13 4 7 - - 0.0
20/08:30pm 4.5 1.8 3.9 96 0.3 ENE 7 13 4 7 - - 0.0
20/08:00pm 3.9 0.7 2.9 93 0.4 ENE 9 13 5 7 - - 0.0
20/07:30pm 4.6 1.5 3.7 94 0.4 ENE 9 17 5 9 - - 0.0
20/07:00pm 4.8 1.8 4.1 95 0.3 ENE 9 19 5 10 - - 0.0
20/06:47pm 4.8 1.4 3.9 94 0.4 ENE 11 17 6 9 - - 0.0
20/06:30pm 4.5 1.0 3.3 92 0.5 E 11 17 6 9 - - 0.0
20/06:00pm 4.6 1.3 2.5 86 0.9 ENE 9 17 5 9 - - 0.0
20/05:30pm 6.0 2.7 2.5 78 1.5 E 9 13 5 7 - - 0.0
20/05:00pm 7.7 4.5 2.8 71 2.2 E 9 13 5 7 - - 0.0
20/04:30pm 9.1 6.4 3.7 69 2.5 E 7 11 4 6 - - 0.0
20/04:00pm 8.8 6.0 3.0 67 2.6 E 7 13 4 7 - - 0.0
20/03:30pm 9.3 6.7 3.3 66 2.8 E 6 9 3 5 - - 0.0
20/03:00pm 10.4 7.3 3.7 63 3.1 ENE 9 19 5 10 - - 0.0
20/02:30pm 10.4 7.2 3.2 61 3.3 S 9 13 5 7 - - 0.0
20/02:00pm 11.1 8.6 3.6 60 3.5 NNE 6 11 3 6 - - 0.0
20/01:30pm 11.9 9.0 4.4 60 3.6 E 9 20 5 11 - - 0.0
20/01:00pm 8.5 5.7 2.3 65 2.8 ESE 6 9 3 5 - - 0.0
20/12:30pm 10.1 7.1 4.3 67 2.8 E 9 15 5 8 - - 0.0
20/12:00pm 8.0 4.7 2.7 69 2.4 SSE 9 15 5 8 - - 0.0
20/11:30am 8.3 5.2 3.8 73 2.1 ESE 9 20 5 11 - - 0.0
20/11:00am 6.9 3.8 3.5 79 1.5 ESE 9 17 5 9 - - 0.0
20/10:30am 6.6 3.5 3.6 81 1.4 SE 9 15 5 8 - - 0.0
20/10:00am 5.3 2.0 2.5 82 1.2 ESE 9 15 5 8 - - 0.0
20/09:34am 5.6 2.0 2.9 83 1.2 SE 11 19 6 10 - - 0.0
20/09:30am 5.5 1.9 2.7 82 1.2 SE 11 19 6 10 - - 0.0
20/09:15am 5.4 2.6 3.1 85 1.0 SSE 7 17 4 9 - - 0.0
20/09:00am 5.1 2.0 3.4 89 0.8 SSE 9 17 5 9 - - 2.2
20/08:58am 5.0 1.8 3.2 88 0.8 SSE 9 19 5 10 - - 2.2
20/08:33am 4.7 1.1 3.2 90 0.7 SSE 11 20 6 11 - - 2.2
20/08:30am 4.5 1.3 3.2 91 0.6 SSE 9 20 5 11 - - 2.2
20/08:07am 3.7 0.8 2.7 93 0.4 S 7 15 4 8 - - 2.2
20/08:03am 3.6 0.3 2.4 92 0.5 S 9 15 5 8 - - 2.2
20/08:00am 3.7 0.8 2.5 92 0.5 S 7 13 4 7 - - 2.2
20/07:59am 3.6 0.7 2.4 92 0.5 S 7 15 4 8 - - 2.2
20/07:47am 3.4 0.1 2.4 93 0.4 S 9 17 5 9 - - 2.2
20/07:30am 3.1 -0.3 2.1 93 0.4 S 9 17 5 9 - - 2.2
20/07:00am 2.7 -0.7 2.0 95 0.3 S 9 13 5 7 - - 2.2
20/06:49am 2.4 -1.1 1.5 94 0.4 S 9 15 5 8 - - 2.2
20/06:30am 2.7 -1.1 1.7 93 0.4 S 11 17 6 9 - - 2.2
20/06:22am 2.7 -0.8 1.5 92 0.5 S 9 17 5 9 - - 2.2
20/06:10am 2.7 -0.4 1.4 91 0.5 S 7 13 4 7 - - 2.2
20/06:00am 2.8 -1.1 1.3 90 0.6 SSE 11 17 6 9 - - 2.2
20/05:59am 2.8 -1.1 1.3 90 0.6 SSE 11 17 6 9 - - 2.2
20/05:30am 3.0 -0.5 1.1 87 0.8 S 9 17 5 9 - - 2.2
20/05:00am 3.0 -0.9 1.1 87 0.8 S 11 15 6 8 - - 2.2
20/04:30am 3.3 -0.6 1.0 85 0.9 S 11 17 6 9 - - 2.2
20/04:00am 2.9 -0.6 1.0 87 0.8 S 9 17 5 9 - - 2.2

Latest Capital City Observations: Canberra | Sydney | Melbourne | Brisbane | Adelaide | Perth | Hobart | Darwin

Other Formats:

Comma delimited format used in spreadsheet applications
http://www.bom.gov.au/fwo/IDN60901/IDN60901.94743.axf

JavaScript Object Notation format (JSON) in row-major order
http://www.bom.gov.au/fwo/IDN60901/IDN60901.94743.json